sensor_id;sensor_type;location;lat;lon;timestamp;pressure;altitude;pressure_sealevel;temperature;humidity
25350;BME280;13302;48.796;11.978;2023-04-02T00:00:22;95967.97;;;10.28;39.39
25350;BME280;13302;48.796;11.978;2023-04-02T00:03:09;95971.94;;;10.31;39.37
25350;BME280;13302;48.796;11.978;2023-04-02T00:05:56;95970.72;;;10.28;39.35
25350;BME280;13302;48.796;11.978;2023-04-02T00:08:43;95976.25;;;10.28;39.78
25350;BME280;13302;48.796;11.978;2023-04-02T00:11:32;95969.47;;;10.26;39.45
25350;BME280;13302;48.796;11.978;2023-04-02T00:14:29;95975.41;;;10.24;39.86
25350;BME280;13302;48.796;11.978;2023-04-02T00:17:17;95978.56;;;10.26;39.66
25350;BME280;13302;48.796;11.978;2023-04-02T00:20:06;95976.16;;;10.21;39.75
25350;BME280;13302;48.796;11.978;2023-04-02T00:22:54;95983.19;;;10.19;39.97
25350;BME280;13302;48.796;11.978;2023-04-02T00:25:43;95980.81;;;10.17;39.86
25350;BME280;13302;48.796;11.978;2023-04-02T00:28:31;95979.63;;;10.18;40.04
25350;BME280;13302;48.796;11.978;2023-04-02T00:31:19;95984.34;;;10.18;40.07
25350;BME280;13302;48.796;11.978;2023-04-02T00:34:08;95982.78;;;10.17;40.07
25350;BME280;13302;48.796;11.978;2023-04-02T00:37:00;95987.91;;;10.18;39.97
25350;BME280;13302;48.796;11.978;2023-04-02T00:39:55;95992.63;;;10.18;40.09
25350;BME280;13302;48.796;11.978;2023-04-02T00:42:45;95990.66;;;10.18;40.14
25350;BME280;13302;48.796;11.978;2023-04-02T00:45:35;95993.44;;;10.18;40.12
25350;BME280;13302;48.796;11.978;2023-04-02T00:51:27;95986.34;;;10.17;40.14
25350;BME280;13302;48.796;11.978;2023-04-02T00:54:18;95993.81;;;10.17;40.16
25350;BME280;13302;48.796;11.978;2023-04-02T00:57:14;95995.34;;;10.14;40.05
25350;BME280;13302;48.796;11.978;2023-04-02T01:00:31;96001.25;;;10.12;39.96
25350;BME280;13302;48.796;11.978;2023-04-02T01:06:12;95995.63;;;10.09;40.10
25350;BME280;13302;48.796;11.978;2023-04-02T01:10:22;95999.59;;;10.08;40.15
25350;BME280;13302;48.796;11.978;2023-04-02T01:19:48;96004.97;;;10.01;39.97
25350;BME280;13302;48.796;11.978;2023-04-02T01:23:06;96010.50;;;10.01;40.04
25350;BME280;13302;48.796;11.978;2023-04-02T01:32:11;96010.19;;;10.06;39.88
25350;BME280;13302;48.796;11.978;2023-04-02T01:34:59;96010.63;;;10.08;39.96
25350;BME280;13302;48.796;11.978;2023-04-02T01:38:05;96017.72;;;10.09;40.19
25350;BME280;13302;48.796;11.978;2023-04-02T01:41:02;96012.22;;;10.09;39.91
25350;BME280;13302;48.796;11.978;2023-04-02T01:43:55;96013.81;;;10.10;39.73
25350;BME280;13302;48.796;11.978;2023-04-02T01:46:47;96017.38;;;10.10;39.88
25350;BME280;13302;48.796;11.978;2023-04-02T01:49:35;96014.25;;;10.12;39.71
25350;BME280;13302;48.796;11.978;2023-04-02T01:52:39;96022.53;;;10.12;39.85
25350;BME280;13302;48.796;11.978;2023-04-02T01:55:44;96019.78;;;10.12;39.95
25350;BME280;13302;48.796;11.978;2023-04-02T01:58:33;96030.03;;;10.11;39.72
25350;BME280;13302;48.796;11.978;2023-04-02T02:01:26;96027.25;;;10.11;39.86
25350;BME280;13302;48.796;11.978;2023-04-02T02:04:16;96026.09;;;10.12;39.83
25350;BME280;13302;48.796;11.978;2023-04-02T02:07:04;96023.75;;;10.14;39.90
25350;BME280;13302;48.796;11.978;2023-04-02T02:09:51;96032.03;;;10.14;39.71
25350;BME280;13302;48.796;11.978;2023-04-02T02:12:48;96030.88;;;10.16;39.59
25350;BME280;13302;48.796;11.978;2023-04-02T02:15:35;96031.28;;;10.18;39.67
25350;BME280;13302;48.796;11.978;2023-04-02T02:18:23;96029.72;;;10.17;39.95
25350;BME280;13302;48.796;11.978;2023-04-02T02:21:27;96031.28;;;10.18;39.68
25350;BME280;13302;48.796;11.978;2023-04-02T02:30:19;96040.78;;;10.17;39.48
25350;BME280;13302;48.796;11.978;2023-04-02T02:36:34;96045.44;;;10.12;39.59
25350;BME280;13302;48.796;11.978;2023-04-02T02:39:32;96042.69;;;10.12;39.62
25350;BME280;13302;48.796;11.978;2023-04-02T02:42:26;96047.00;;;10.13;39.75
25350;BME280;13302;48.796;11.978;2023-04-02T02:45:17;96052.53;;;10.13;39.77
25350;BME280;13302;48.796;11.978;2023-04-02T02:48:11;96051.72;;;10.13;39.70
25350;BME280;13302;48.796;11.978;2023-04-02T02:51:05;96054.88;;;10.11;39.46
25350;BME280;13302;48.796;11.978;2023-04-02T02:53:59;96054.06;;;10.11;39.58
25350;BME280;13302;48.796;11.978;2023-04-02T02:56:53;96057.66;;;10.11;39.45
25350;BME280;13302;48.796;11.978;2023-04-02T02:59:43;96071.44;;;10.11;39.70
25350;BME280;13302;48.796;11.978;2023-04-02T03:02:35;96062.78;;;10.13;39.72
25350;BME280;13302;48.796;11.978;2023-04-02T03:05:26;96074.22;;;10.11;39.58
25350;BME280;13302;48.796;11.978;2023-04-02T03:08:40;96071.00;;;10.09;39.66
25350;BME280;13302;48.796;11.978;2023-04-02T03:11:35;96064.31;;;10.10;39.52
25350;BME280;13302;48.796;11.978;2023-04-02T03:14:45;96074.50;;;10.06;39.63
25350;BME280;13302;48.796;11.978;2023-04-02T03:17:40;96069.78;;;10.07;39.75
25350;BME280;13302;48.796;11.978;2023-04-02T03:20:48;96079.22;;;10.06;39.77
25350;BME280;13302;48.796;11.978;2023-04-02T03:23:42;96076.13;;;10.07;39.76
25350;BME280;13302;48.796;11.978;2023-04-02T03:29:26;96083.16;;;10.05;39.86
25350;BME280;13302;48.796;11.978;2023-04-02T03:32:19;96091.44;;;10.05;39.63
25350;BME280;13302;48.796;11.978;2023-04-02T03:38:40;96091.44;;;10.05;39.74
25350;BME280;13302;48.796;11.978;2023-04-02T03:41:51;96096.94;;;10.05;39.68
25350;BME280;13302;48.796;11.978;2023-04-02T03:45:15;96100.84;;;10.00;39.95
25350;BME280;13302;48.796;11.978;2023-04-02T03:48:48;96100.03;;;10.00;39.95
25350;BME280;13302;48.796;11.978;2023-04-02T03:51:52;96105.97;;;10.02;40.04
25350;BME280;13302;48.796;11.978;2023-04-02T03:54:41;96102.06;;;10.03;39.96
25350;BME280;13302;48.796;11.978;2023-04-02T03:58:00;96106.78;;;10.02;40.04
25350;BME280;13302;48.796;11.978;2023-04-02T04:03:44;96116.22;;;10.01;39.89
25350;BME280;13302;48.796;11.978;2023-04-02T04:06:34;96120.59;;;10.02;39.77
25350;BME280;13302;48.796;11.978;2023-04-02T04:09:27;96122.94;;;10.00;39.71
25350;BME280;13302;48.796;11.978;2023-04-02T04:12:26;96131.97;;;10.01;39.68
25350;BME280;13302;48.796;11.978;2023-04-02T04:15:34;96131.56;;;9.99;39.74
25350;BME280;13302;48.796;11.978;2023-04-02T04:21:25;96139.84;;;9.99;39.61
25350;BME280;13302;48.796;11.978;2023-04-02T04:24:33;96146.53;;;9.98;39.80
25350;BME280;13302;48.796;11.978;2023-04-02T04:27:43;96148.47;;;9.97;39.92
25350;BME280;13302;48.796;11.978;2023-04-02T04:30:59;96146.19;;;9.99;39.99
25350;BME280;13302;48.796;11.978;2023-04-02T04:33:54;96154.88;;;10.01;39.95
25350;BME280;13302;48.796;11.978;2023-04-02T04:36:57;96162.00;;;10.02;39.88
25350;BME280;13302;48.796;11.978;2023-04-02T04:39:56;96165.91;;;10.01;39.92
25350;BME280;13302;48.796;11.978;2023-04-02T04:42:46;96168.75;;;10.05;39.83
25350;BME280;13302;48.796;11.978;2023-04-02T04:45:46;96165.56;;;10.03;39.74
25350;BME280;13302;48.796;11.978;2023-04-02T04:49:07;96173.50;;;10.04;39.57
25350;BME280;13302;48.796;11.978;2023-04-02T04:52:15;96179.44;;;10.06;39.66
25350;BME280;13302;48.796;11.978;2023-04-02T04:55:29;96181.34;;;10.02;39.70
25350;BME280;13302;48.796;11.978;2023-04-02T05:01:26;96201.03;;;10.01;40.09
25350;BME280;13302;48.796;11.978;2023-04-02T05:04:36;96193.47;;;9.98;40.07
25350;BME280;13302;48.796;11.978;2023-04-02T05:07:29;96204.97;;;10.00;40.05
25350;BME280;13302;48.796;11.978;2023-04-02T05:10:29;96196.69;;;10.00;40.09
25350;BME280;13302;48.796;11.978;2023-04-02T05:13:24;96205.31;;;9.98;40.02
25350;BME280;13302;48.796;11.978;2023-04-02T05:19:32;96212.00;;;9.97;40.30
25350;BME280;13302;48.796;11.978;2023-04-02T05:22:35;96216.72;;;9.97;40.05
25350;BME280;13302;48.796;11.978;2023-04-02T05:25:29;96221.47;;;9.96;40.23
25350;BME280;13302;48.796;11.978;2023-04-02T05:28:29;96227.41;;;9.98;40.31
25350;BME280;13302;48.796;11.978;2023-04-02T05:31:24;96221.47;;;9.96;40.13
25350;BME280;13302;48.796;11.978;2023-04-02T05:34:22;96232.84;;;9.95;40.32
25350;BME280;13302;48.796;11.978;2023-04-02T05:37:23;96230.09;;;9.95;40.50
25350;BME280;13302;48.796;11.978;2023-04-02T05:40:21;96245.50;;;9.96;40.39
25350;BME280;13302;48.796;11.978;2023-04-02T05:43:14;96240.78;;;9.96;40.38
25350;BME280;13302;48.796;11.978;2023-04-02T05:46:13;96239.53;;;9.94;40.49
25350;BME280;13302;48.796;11.978;2023-04-02T05:49:06;96241.13;;;9.95;40.34
25350;BME280;13302;48.796;11.978;2023-04-02T05:51:58;96246.22;;;9.93;40.46
25350;BME280;13302;48.796;11.978;2023-04-02T05:58:05;96253.63;;;9.89;40.77
25350;BME280;13302;48.796;11.978;2023-04-02T06:04:35;96259.94;;;9.89;40.90
25350;BME280;13302;48.796;11.978;2023-04-02T06:07:35;96260.31;;;9.88;41.02
25350;BME280;13302;48.796;11.978;2023-04-02T06:10:30;96269.03;;;9.90;40.71
25350;BME280;13302;48.796;11.978;2023-04-02T06:13:19;96258.78;;;9.90;40.83
25350;BME280;13302;48.796;11.978;2023-04-02T06:16:11;96270.19;;;9.89;41.21
25350;BME280;13302;48.796;11.978;2023-04-02T06:18:59;96271.38;;;9.88;40.98
25350;BME280;13302;48.796;11.978;2023-04-02T06:21:47;96268.59;;;9.88;41.05
25350;BME280;13302;48.796;11.978;2023-04-02T06:24:40;96272.94;;;9.89;41.29
25350;BME280;13302;48.796;11.978;2023-04-02T06:27:28;96278.91;;;9.91;41.33
25350;BME280;13302;48.796;11.978;2023-04-02T06:30:24;96274.13;;;9.88;41.23
25350;BME280;13302;48.796;11.978;2023-04-02T06:33:15;96277.69;;;9.88;41.38
25350;BME280;13302;48.796;11.978;2023-04-02T06:36:05;96295.84;;;9.89;41.36
25350;BME280;13302;48.796;11.978;2023-04-02T06:39:00;96297.00;;;9.88;41.23
25350;BME280;13302;48.796;11.978;2023-04-02T06:41:59;96300.53;;;9.89;41.44
25350;BME280;13302;48.796;11.978;2023-04-02T06:45:26;96305.19;;;9.85;41.25
25350;BME280;13302;48.796;11.978;2023-04-02T06:48:34;96303.22;;;9.85;41.37
25350;BME280;13302;48.796;11.978;2023-04-02T06:51:23;96314.28;;;9.85;41.31
25350;BME280;13302;48.796;11.978;2023-04-02T06:54:14;96326.13;;;9.86;41.63
25350;BME280;13302;48.796;11.978;2023-04-02T06:57:04;96328.47;;;9.84;41.43
25350;BME280;13302;48.796;11.978;2023-04-02T06:59:59;96332.78;;;9.85;41.61
25350;BME280;13302;48.796;11.978;2023-04-02T07:02:47;96332.44;;;9.86;41.51
25350;BME280;13302;48.796;11.978;2023-04-02T07:05:36;96336.34;;;9.85;41.59
25350;BME280;13302;48.796;11.978;2023-04-02T07:08:24;96339.13;;;9.85;41.50
25350;BME280;13302;48.796;11.978;2023-04-02T07:11:14;96337.16;;;9.86;41.88
25350;BME280;13302;48.796;11.978;2023-04-02T07:14:10;96344.28;;;9.87;41.67
25350;BME280;13302;48.796;11.978;2023-04-02T07:16:58;96345.91;;;9.88;41.77
25350;BME280;13302;48.796;11.978;2023-04-02T07:19:46;96355.00;;;9.88;42.02
25350;BME280;13302;48.796;11.978;2023-04-02T07:22:37;96356.94;;;9.88;42.05
25350;BME280;13302;48.796;11.978;2023-04-02T07:25:25;96360.13;;;9.90;42.15
25350;BME280;13302;48.796;11.978;2023-04-02T07:28:12;96356.22;;;9.91;42.05
25350;BME280;13302;48.796;11.978;2023-04-02T07:31:00;96360.59;;;9.92;41.88
25350;BME280;13302;48.796;11.978;2023-04-02T07:33:47;96360.59;;;9.92;42.08
25350;BME280;13302;48.796;11.978;2023-04-02T07:36:34;96370.03;;;9.91;42.15
25350;BME280;13302;48.796;11.978;2023-04-02T07:39:22;96375.56;;;9.91;42.07
25350;BME280;13302;48.796;11.978;2023-04-02T07:42:09;96381.06;;;9.91;41.98
25350;BME280;13302;48.796;11.978;2023-04-02T07:44:56;96379.91;;;9.92;41.96
25350;BME280;13302;48.796;11.978;2023-04-02T07:47:43;96383.84;;;9.91;42.07
25350;BME280;13302;48.796;11.978;2023-04-02T07:50:30;96391.78;;;9.92;42.13
25350;BME280;13302;48.796;11.978;2023-04-02T07:53:30;96392.91;;;9.91;42.08
25350;BME280;13302;48.796;11.978;2023-04-02T07:56:20;96402.81;;;9.92;42.28
25350;BME280;13302;48.796;11.978;2023-04-02T07:59:08;96394.88;;;9.91;42.18
25350;BME280;13302;48.796;11.978;2023-04-02T08:01:55;96414.19;;;9.91;42.29
25350;BME280;13302;48.796;11.978;2023-04-02T08:04:42;96406.19;;;9.86;42.16
25350;BME280;13302;48.796;11.978;2023-04-02T08:07:29;96410.91;;;9.85;42.48
25350;BME280;13302;48.796;11.978;2023-04-02T08:10:16;96414.84;;;9.84;42.49
25350;BME280;13302;48.796;11.978;2023-04-02T08:13:05;96418.75;;;9.83;42.39
25350;BME280;13302;48.796;11.978;2023-04-02T08:15:52;96420.72;;;9.83;42.52
25350;BME280;13302;48.796;11.978;2023-04-02T08:18:39;96418.75;;;9.83;42.43
25350;BME280;13302;48.796;11.978;2023-04-02T08:21:26;96425.09;;;9.84;42.61
25350;BME280;13302;48.796;11.978;2023-04-02T08:24:13;96424.28;;;9.83;42.46
25350;BME280;13302;48.796;11.978;2023-04-02T08:27:00;96429.41;;;9.85;42.63
25350;BME280;13302;48.796;11.978;2023-04-02T08:29:47;96428.72;;;9.88;42.82
25350;BME280;13302;48.796;11.978;2023-04-02T08:32:34;96433.06;;;9.89;42.58
25350;BME280;13302;48.796;11.978;2023-04-02T08:35:22;96431.19;;;9.93;42.87
25350;BME280;13302;48.796;11.978;2023-04-02T08:38:13;96437.97;;;9.95;42.67
25350;BME280;13302;48.796;11.978;2023-04-02T08:41:03;96440.03;;;9.98;42.76
25350;BME280;13302;48.796;11.978;2023-04-02T08:44:06;96437.25;;;9.98;42.81
25350;BME280;13302;48.796;11.978;2023-04-02T08:47:03;96442.78;;;9.98;42.91
25350;BME280;13302;48.796;11.978;2023-04-02T08:49:58;96449.53;;;10.01;42.86
25350;BME280;13302;48.796;11.978;2023-04-02T08:52:46;96447.25;;;10.03;43.02
25350;BME280;13302;48.796;11.978;2023-04-02T08:55:38;96450.00;;;10.03;42.79
25350;BME280;13302;48.796;11.978;2023-04-02T08:58:36;96450.44;;;10.05;43.07
25350;BME280;13302;48.796;11.978;2023-04-02T09:04:31;96462.00;;;10.10;43.04
25350;BME280;13302;48.796;11.978;2023-04-02T09:07:19;96459.72;;;10.12;42.94
25350;BME280;13302;48.796;11.978;2023-04-02T09:10:14;96464.06;;;10.13;43.00
25350;BME280;13302;48.796;11.978;2023-04-02T09:13:02;96467.69;;;10.18;43.04
25350;BME280;13302;48.796;11.978;2023-04-02T09:16:02;96473.22;;;10.18;43.07
25350;BME280;13302;48.796;11.978;2023-04-02T09:18:52;96475.22;;;10.17;42.94
25350;BME280;13302;48.796;11.978;2023-04-02T09:21:44;96479.66;;;10.22;42.81
25350;BME280;13302;48.796;11.978;2023-04-02T09:24:32;96486.44;;;10.24;43.00
25350;BME280;13302;48.796;11.978;2023-04-02T09:27:25;96482.50;;;10.25;43.10
25350;BME280;13302;48.796;11.978;2023-04-02T09:33:18;96491.50;;;10.22;43.17
25350;BME280;13302;48.796;11.978;2023-04-02T09:36:16;96496.22;;;10.22;43.00
25350;BME280;13302;48.796;11.978;2023-04-02T09:39:23;96500.66;;;10.26;43.08
25350;BME280;13302;48.796;11.978;2023-04-02T09:42:33;96504.25;;;10.27;43.31
25350;BME280;13302;48.796;11.978;2023-04-02T09:45:22;96496.75;;;10.27;43.09
25350;BME280;13302;48.796;11.978;2023-04-02T09:48:23;96503.91;;;10.28;43.32
25350;BME280;13302;48.796;11.978;2023-04-02T09:51:14;96512.19;;;10.28;43.24
25350;BME280;13302;48.796;11.978;2023-04-02T09:57:00;96513.41;;;10.31;43.55
25350;BME280;13302;48.796;11.978;2023-04-02T10:00:07;96516.19;;;10.31;43.30
25350;BME280;13302;48.796;11.978;2023-04-02T10:03:25;96524.13;;;10.32;43.28
25350;BME280;13302;48.796;11.978;2023-04-02T10:06:14;96520.63;;;10.35;43.51
25350;BME280;13302;48.796;11.978;2023-04-02T10:09:20;96520.63;;;10.35;43.68
25350;BME280;13302;48.796;11.978;2023-04-02T10:12:13;96521.09;;;10.37;43.63
25350;BME280;13302;48.796;11.978;2023-04-02T10:15:02;96523.13;;;10.40;43.52
25350;BME280;13302;48.796;11.978;2023-04-02T10:17:59;96529.09;;;10.42;43.78
25350;BME280;13302;48.796;11.978;2023-04-02T10:20:49;96529.16;;;10.46;43.70
25350;BME280;13302;48.796;11.978;2023-04-02T10:23:38;96540.34;;;10.49;43.64
25350;BME280;13302;48.796;11.978;2023-04-02T10:26:37;96532.03;;;10.49;43.51
25350;BME280;13302;48.796;11.978;2023-04-02T10:29:33;96536.84;;;10.52;43.50
25350;BME280;13302;48.796;11.978;2023-04-02T10:32:59;96534.88;;;10.53;43.78
25350;BME280;13302;48.796;11.978;2023-04-02T10:39:01;96536.03;;;10.52;43.64
25350;BME280;13302;48.796;11.978;2023-04-02T10:42:09;96538.00;;;10.51;43.61
25350;BME280;13302;48.796;11.978;2023-04-02T10:45:30;96543.53;;;10.51;43.55
25350;BME280;13302;48.796;11.978;2023-04-02T10:48:50;96547.44;;;10.50;43.85
25350;BME280;13302;48.796;11.978;2023-04-02T10:54:32;96552.63;;;10.52;43.86
25350;BME280;13302;48.796;11.978;2023-04-02T11:00:21;96559.03;;;10.56;44.08
25350;BME280;13302;48.796;11.978;2023-04-02T11:03:13;96560.66;;;10.57;44.10
25350;BME280;13302;48.796;11.978;2023-04-02T11:06:16;96566.63;;;10.59;43.88
25350;BME280;13302;48.796;11.978;2023-04-02T11:09:06;96576.19;;;10.62;44.14
25350;BME280;13302;48.796;11.978;2023-04-02T11:12:00;96583.75;;;10.65;44.09
25350;BME280;13302;48.796;11.978;2023-04-02T11:14:49;96575.56;;;10.68;44.08
25350;BME280;13302;48.796;11.978;2023-04-02T11:17:37;96577.50;;;10.68;43.89
25350;BME280;13302;48.796;11.978;2023-04-02T11:23:38;96589.91;;;10.74;43.97
25350;BME280;13302;48.796;11.978;2023-04-02T11:26:41;96588.31;;;10.73;43.96
25350;BME280;13302;48.796;11.978;2023-04-02T11:29:31;96593.56;;;10.78;43.92
25350;BME280;13302;48.796;11.978;2023-04-02T11:41:07;96610.97;;;10.78;43.46
25350;BME280;13302;48.796;11.978;2023-04-02T11:43:59;96616.50;;;10.78;43.39
25350;BME280;13302;48.796;11.978;2023-04-02T11:46:47;96615.69;;;10.78;43.51
25350;BME280;13302;48.796;11.978;2023-04-02T11:49:36;96614.88;;;10.77;43.69
25350;BME280;13302;48.796;11.978;2023-04-02T11:52:27;96616.03;;;10.76;43.44
25350;BME280;13302;48.796;11.978;2023-04-02T11:55:20;96624.78;;;10.78;43.62
25350;BME280;13302;48.796;11.978;2023-04-02T12:11:00;96635.84;;;10.78;43.68
25350;BME280;13302;48.796;11.978;2023-04-02T12:13:48;96641.47;;;10.82;43.64
25350;BME280;13302;48.796;11.978;2023-04-02T12:16:36;96650.81;;;10.77;43.47
25350;BME280;13302;48.796;11.978;2023-04-02T12:19:24;96656.44;;;10.81;43.14
25350;BME280;13302;48.796;11.978;2023-04-02T12:22:18;96656.44;;;10.81;43.29
25350;BME280;13302;48.796;11.978;2023-04-02T12:25:27;96660.44;;;10.83;43.03
25350;BME280;13302;48.796;11.978;2023-04-02T12:28:17;96668.72;;;10.83;42.97
25350;BME280;13302;48.796;11.978;2023-04-02T12:33:55;96675.44;;;10.82;42.25
25350;BME280;13302;48.796;11.978;2023-04-02T12:36:56;96678.22;;;10.82;42.59
25350;BME280;13302;48.796;11.978;2023-04-02T12:39:54;96683.75;;;10.82;42.64
25350;BME280;13302;48.796;11.978;2023-04-02T12:42:42;96677.03;;;10.83;42.55
25350;BME280;13302;48.796;11.978;2023-04-02T12:45:31;96690.97;;;10.87;42.27
25350;BME280;13302;48.796;11.978;2023-04-02T12:48:20;96686.22;;;10.87;42.55
25350;BME280;13302;48.796;11.978;2023-04-02T12:51:09;96690.97;;;10.87;42.49
25350;BME280;13302;48.796;11.978;2023-04-02T12:53:56;96690.59;;;10.88;42.26
25350;BME280;13302;48.796;11.978;2023-04-02T12:56:44;96701.31;;;10.90;42.46
25350;BME280;13302;48.796;11.978;2023-04-02T12:59:35;96689.88;;;10.91;42.60
25350;BME280;13302;48.796;11.978;2023-04-02T13:02:24;96707.72;;;10.94;42.55
25350;BME280;13302;48.796;11.978;2023-04-02T13:05:11;96702.63;;;10.96;42.13
25350;BME280;13302;48.796;11.978;2023-04-02T13:07:58;96700.31;;;10.98;42.13
25350;BME280;13302;48.796;11.978;2023-04-02T13:10:51;96710.25;;;10.99;42.18
25350;BME280;13302;48.796;11.978;2023-04-02T13:13:41;96714.59;;;11.00;41.87
25350;BME280;13302;48.796;11.978;2023-04-02T13:16:35;96715.31;;;10.97;41.96
25350;BME280;13302;48.796;11.978;2023-04-02T13:19:32;96722.38;;;10.94;41.87
25350;BME280;13302;48.796;11.978;2023-04-02T13:22:29;96723.88;;;10.92;41.74
25350;BME280;13302;48.796;11.978;2023-04-02T13:25:17;96730.94;;;10.89;41.57
25350;BME280;13302;48.796;11.978;2023-04-02T13:28:04;96730.03;;;10.85;41.17
25350;BME280;13302;48.796;11.978;2023-04-02T13:30:52;96733.94;;;10.84;41.39
25350;BME280;13302;48.796;11.978;2023-04-02T13:33:39;96740.19;;;10.81;41.12
25350;BME280;13302;48.796;11.978;2023-04-02T13:36:26;96732.50;;;10.75;41.22
25350;BME280;13302;48.796;11.978;2023-04-02T13:39:15;96741.97;;;10.74;41.30
25350;BME280;13302;48.796;11.978;2023-04-02T13:42:03;96734.38;;;10.71;40.90
25350;BME280;13302;48.796;11.978;2023-04-02T13:44:50;96741.88;;;10.70;41.24
25350;BME280;13302;48.796;11.978;2023-04-02T13:47:37;96750.63;;;10.72;41.13
25350;BME280;13302;48.796;11.978;2023-04-02T13:50:28;96747.41;;;10.70;41.16
25350;BME280;13302;48.796;11.978;2023-04-02T13:53:23;96753.84;;;10.74;41.18
25350;BME280;13302;48.796;11.978;2023-04-02T13:56:14;96744.84;;;10.77;40.96
25350;BME280;13302;48.796;11.978;2023-04-02T13:59:01;96758.75;;;10.81;40.75
25350;BME280;13302;48.796;11.978;2023-04-02T14:01:49;96763.94;;;10.82;40.91
25350;BME280;13302;48.796;11.978;2023-04-02T14:04:41;96763.13;;;10.82;40.71
25350;BME280;13302;48.796;11.978;2023-04-02T14:07:51;96765.97;;;10.85;40.57
25350;BME280;13302;48.796;11.978;2023-04-02T14:14:26;96779.63;;;10.78;40.10
25350;BME280;13302;48.796;11.978;2023-04-02T14:20:44;96778.53;;;10.67;40.08
25350;BME280;13302;48.796;11.978;2023-04-02T14:23:49;96785.56;;;10.65;39.91
25350;BME280;13302;48.796;11.978;2023-04-02T14:26:52;96788.34;;;10.65;40.02
25350;BME280;13302;48.796;11.978;2023-04-02T14:32:42;96792.25;;;10.64;39.81
25350;BME280;13302;48.796;11.978;2023-04-02T14:35:34;96804.81;;;10.61;39.97
25350;BME280;13302;48.796;11.978;2023-04-02T14:38:45;96800.22;;;10.53;40.06
25350;BME280;13302;48.796;11.978;2023-04-02T14:41:59;96806.47;;;10.50;39.79
25350;BME280;13302;48.796;11.978;2023-04-02T14:44:59;96809.91;;;10.47;40.06
25350;BME280;13302;48.796;11.978;2023-04-02T14:47:52;96813.03;;;10.45;40.01
25350;BME280;13302;48.796;11.978;2023-04-02T14:50:41;96817.28;;;10.43;39.74
25350;BME280;13302;48.796;11.978;2023-04-02T14:53:41;96818.34;;;10.38;39.74
25350;BME280;13302;48.796;11.978;2023-04-02T14:56:38;96832.16;;;10.38;39.71
25350;BME280;13302;48.796;11.978;2023-04-02T14:59:33;96836.88;;;10.38;39.68
25350;BME280;13302;48.796;11.978;2023-04-02T15:02:42;96831.34;;;10.38;39.70
25350;BME280;13302;48.796;11.978;2023-04-02T15:05:52;96840.34;;;10.35;39.53
25350;BME280;13302;48.796;11.978;2023-04-02T15:09:15;96847.03;;;10.34;39.66
25350;BME280;13302;48.796;11.978;2023-04-02T15:12:10;96848.88;;;10.30;39.41
25350;BME280;13302;48.796;11.978;2023-04-02T15:15:06;96855.91;;;10.27;39.56
25350;BME280;13302;48.796;11.978;2023-04-02T15:18:00;96864.69;;;10.29;39.95
25350;BME280;13302;48.796;11.978;2023-04-02T15:24:08;96877.13;;;10.23;39.66
25350;BME280;13302;48.796;11.978;2023-04-02T15:30:11;96878.72;;;10.24;39.85
25350;BME280;13302;48.796;11.978;2023-04-02T15:33:28;96879.53;;;10.25;39.80
25350;BME280;13302;48.796;11.978;2023-04-02T15:36:37;96882.75;;;10.27;39.62
25350;BME280;13302;48.796;11.978;2023-04-02T15:39:45;96887.47;;;10.26;39.44
25350;BME280;13302;48.796;11.978;2023-04-02T15:42:38;96888.06;;;10.20;39.34
25350;BME280;13302;48.796;11.978;2023-04-02T15:45:52;96892.66;;;10.16;39.52
25350;BME280;13302;48.796;11.978;2023-04-02T15:52:14;96895.75;;;10.14;38.93
25350;BME280;13302;48.796;11.978;2023-04-02T15:55:09;96900.84;;;10.12;38.73
25350;BME280;13302;48.796;11.978;2023-04-02T15:58:23;96905.91;;;10.10;38.73
25350;BME280;13302;48.796;11.978;2023-04-02T16:01:49;96910.97;;;10.08;38.81
25350;BME280;13302;48.796;11.978;2023-04-02T16:11:18;96925.13;;;9.94;38.14
25350;BME280;13302;48.796;11.978;2023-04-02T16:14:19;96938.13;;;9.94;38.38
25350;BME280;13302;48.796;11.978;2023-04-02T16:17:25;96939.97;;;9.90;38.20
25350;BME280;13302;48.796;11.978;2023-04-02T16:20:18;96938.72;;;9.87;38.15
25350;BME280;13302;48.796;11.978;2023-04-02T16:23:13;96944.94;;;9.84;37.89
25350;BME280;13302;48.796;11.978;2023-04-02T16:29:37;96962.06;;;9.78;37.49
25350;BME280;13302;48.796;11.978;2023-04-02T16:43:04;96980.09;;;9.63;37.33
25350;BME280;13302;48.796;11.978;2023-04-02T16:49:14;96997.69;;;9.58;36.76
25350;BME280;13302;48.796;11.978;2023-04-02T16:55:33;97013.00;;;9.47;36.53
25350;BME280;13302;48.796;11.978;2023-04-02T16:58:41;97013.69;;;9.44;36.41
25350;BME280;13302;48.796;11.978;2023-04-02T17:01:41;97014.25;;;9.38;35.90
25350;BME280;13302;48.796;11.978;2023-04-02T17:10:51;97036.72;;;9.28;35.94
25350;BME280;13302;48.796;11.978;2023-04-02T17:13:41;97040.97;;;9.25;35.65
25350;BME280;13302;48.796;11.978;2023-04-02T17:16:41;97047.19;;;9.22;35.65
25350;BME280;13302;48.796;11.978;2023-04-02T17:19:31;97048.00;;;9.23;35.65
25350;BME280;13302;48.796;11.978;2023-04-02T17:22:20;97050.94;;;9.17;35.26
25350;BME280;13302;48.796;11.978;2023-04-02T17:25:15;97056.78;;;9.16;35.01
25350;BME280;13302;48.796;11.978;2023-04-02T17:28:08;97063.66;;;9.10;35.05
25350;BME280;13302;48.796;11.978;2023-04-02T17:30:58;97062.38;;;9.07;34.75
25350;BME280;13302;48.796;11.978;2023-04-02T17:33:46;97069.72;;;9.03;34.86
25350;BME280;13302;48.796;11.978;2023-04-02T17:46:57;97093.56;;;8.79;34.75
25350;BME280;13302;48.796;11.978;2023-04-02T17:52:21;97115.31;;;8.71;34.14
25350;BME280;13302;48.796;11.978;2023-04-02T17:58:41;97120.75;;;8.59;34.02
25350;BME280;13302;48.796;11.978;2023-04-02T18:07:53;97136.66;;;8.54;34.12
25350;BME280;13302;48.796;11.978;2023-04-02T18:11:08;97133.75;;;8.50;34.11
25350;BME280;13302;48.796;11.978;2023-04-02T18:20:30;97156.91;;;8.41;33.90